sensor_id;sensor_type;location;lat;lon;timestamp;P1;durP1;ratioP1;P2;durP2;ratioP2
47966;SDS011;33733;52.456;13.620;2023-03-20T00:01:54;5.03;;;1.60;;
47966;SDS011;33733;52.456;13.620;2023-03-20T00:04:21;4.40;;;1.17;;
47966;SDS011;33733;52.456;13.620;2023-03-20T00:06:48;5.53;;;1.88;;
47966;SDS011;33733;52.456;13.620;2023-03-20T00:09:15;4.38;;;1.40;;
47966;SDS011;33733;52.456;13.620;2023-03-20T00:11:46;5.32;;;1.45;;
47966;SDS011;33733;52.456;13.620;2023-03-20T00:14:15;4.45;;;1.10;;
47966;SDS011;33733;52.456;13.620;2023-03-20T00:16:43;5.28;;;1.15;;
47966;SDS011;33733;52.456;13.620;2023-03-20T00:19:15;3.25;;;0.90;;
47966;SDS011;33733;52.456;13.620;2023-03-20T00:21:43;5.03;;;1.70;;
47966;SDS011;33733;52.456;13.620;2023-03-20T00:24:13;5.22;;;1.77;;
47966;SDS011;33733;52.456;13.620;2023-03-20T00:26:42;4.50;;;1.38;;
47966;SDS011;33733;52.456;13.620;2023-03-20T00:29:14;5.47;;;1.50;;
47966;SDS011;33733;52.456;13.620;2023-03-20T00:31:47;7.07;;;1.40;;
47966;SDS011;33733;52.456;13.620;2023-03-20T00:34:16;4.35;;;1.70;;
47966;SDS011;33733;52.456;13.620;2023-03-20T00:36:45;4.78;;;1.40;;
47966;SDS011;33733;52.456;13.620;2023-03-20T00:39:12;3.53;;;1.02;;
47966;SDS011;33733;52.456;13.620;2023-03-20T00:41:42;3.13;;;0.85;;
47966;SDS011;33733;52.456;13.620;2023-03-20T00:46:59;3.80;;;1.60;;
47966;SDS011;33733;52.456;13.620;2023-03-20T00:49:29;5.00;;;1.35;;
47966;SDS011;33733;52.456;13.620;2023-03-20T00:51:57;4.43;;;1.23;;
47966;SDS011;33733;52.456;13.620;2023-03-20T00:54:24;4.70;;;1.45;;
47966;SDS011;33733;52.456;13.620;2023-03-20T00:59:38;3.97;;;1.40;;
47966;SDS011;33733;52.456;13.620;2023-03-20T01:02:07;4.35;;;1.52;;
47966;SDS011;33733;52.456;13.620;2023-03-20T01:04:36;3.80;;;1.27;;
47966;SDS011;33733;52.456;13.620;2023-03-20T01:07:04;4.35;;;1.20;;
47966;SDS011;33733;52.456;13.620;2023-03-20T01:09:32;3.70;;;1.48;;
47966;SDS011;33733;52.456;13.620;2023-03-20T01:11:59;3.65;;;1.38;;
47966;SDS011;33733;52.456;13.620;2023-03-20T01:14:26;4.80;;;1.27;;
47966;SDS011;33733;52.456;13.620;2023-03-20T01:16:56;3.95;;;1.33;;
47966;SDS011;33733;52.456;13.620;2023-03-20T01:19:22;3.95;;;1.77;;
47966;SDS011;33733;52.456;13.620;2023-03-20T01:21:49;4.20;;;1.52;;
47966;SDS011;33733;52.456;13.620;2023-03-20T01:24:17;4.13;;;1.15;;
47966;SDS011;33733;52.456;13.620;2023-03-20T01:26:44;4.00;;;1.80;;
47966;SDS011;33733;52.456;13.620;2023-03-20T01:29:18;4.30;;;1.58;;
47966;SDS011;33733;52.456;13.620;2023-03-20T01:31:45;3.95;;;1.23;;
47966;SDS011;33733;52.456;13.620;2023-03-20T01:34:13;4.90;;;1.30;;
47966;SDS011;33733;52.456;13.620;2023-03-20T01:36:45;3.47;;;1.20;;
47966;SDS011;33733;52.456;13.620;2023-03-20T01:39:14;7.28;;;1.40;;
47966;SDS011;33733;52.456;13.620;2023-03-20T01:41:41;3.80;;;1.15;;
47966;SDS011;33733;52.456;13.620;2023-03-20T01:47:02;4.40;;;1.35;;
47966;SDS011;33733;52.456;13.620;2023-03-20T01:52:36;5.55;;;1.58;;
47966;SDS011;33733;52.456;13.620;2023-03-20T01:55:02;4.22;;;1.30;;
47966;SDS011;33733;52.456;13.620;2023-03-20T01:57:29;3.47;;;1.52;;
47966;SDS011;33733;52.456;13.620;2023-03-20T02:00:00;4.00;;;1.30;;
47966;SDS011;33733;52.456;13.620;2023-03-20T02:02:40;3.80;;;1.63;;
47966;SDS011;33733;52.456;13.620;2023-03-20T02:05:09;4.75;;;1.65;;
47966;SDS011;33733;52.456;13.620;2023-03-20T02:07:37;4.07;;;1.52;;
47966;SDS011;33733;52.456;13.620;2023-03-20T02:10:08;3.72;;;1.55;;
47966;SDS011;33733;52.456;13.620;2023-03-20T02:12:57;2.75;;;1.05;;
47966;SDS011;33733;52.456;13.620;2023-03-20T02:15:34;4.22;;;1.52;;
47966;SDS011;33733;52.456;13.620;2023-03-20T02:18:10;4.18;;;1.45;;
47966;SDS011;33733;52.456;13.620;2023-03-20T02:20:47;4.20;;;0.95;;
47966;SDS011;33733;52.456;13.620;2023-03-20T02:40:21;3.25;;;1.17;;
47966;SDS011;33733;52.456;13.620;2023-03-20T02:45:25;5.10;;;1.05;;
47966;SDS011;33733;52.456;13.620;2023-03-20T02:48:20;3.97;;;1.70;;
47966;SDS011;33733;52.456;13.620;2023-03-20T02:50:56;5.95;;;1.52;;
47966;SDS011;33733;52.456;13.620;2023-03-20T02:56:16;7.90;;;1.38;;
47966;SDS011;33733;52.456;13.620;2023-03-20T02:58:50;4.10;;;1.20;;
47966;SDS011;33733;52.456;13.620;2023-03-20T03:01:21;4.20;;;1.25;;
47966;SDS011;33733;52.456;13.620;2023-03-20T03:03:53;3.17;;;1.23;;
47966;SDS011;33733;52.456;13.620;2023-03-20T03:06:25;3.90;;;1.42;;
47966;SDS011;33733;52.456;13.620;2023-03-20T03:08:54;4.30;;;1.50;;
47966;SDS011;33733;52.456;13.620;2023-03-20T03:11:27;5.25;;;1.52;;
47966;SDS011;33733;52.456;13.620;2023-03-20T03:13:54;4.88;;;1.40;;
47966;SDS011;33733;52.456;13.620;2023-03-20T03:16:26;5.00;;;1.88;;
47966;SDS011;33733;52.456;13.620;2023-03-20T03:19:08;4.75;;;1.25;;
47966;SDS011;33733;52.456;13.620;2023-03-20T03:21:39;3.97;;;1.45;;
47966;SDS011;33733;52.456;13.620;2023-03-20T03:24:15;4.10;;;1.25;;
47966;SDS011;33733;52.456;13.620;2023-03-20T03:26:58;3.22;;;1.20;;
47966;SDS011;33733;52.456;13.620;2023-03-20T03:29:29;4.32;;;1.42;;
47966;SDS011;33733;52.456;13.620;2023-03-20T03:31:58;4.47;;;1.42;;
47966;SDS011;33733;52.456;13.620;2023-03-20T03:34:26;4.70;;;1.90;;
47966;SDS011;33733;52.456;13.620;2023-03-20T03:42:41;4.35;;;1.42;;
47966;SDS011;33733;52.456;13.620;2023-03-20T03:45:30;5.93;;;1.67;;
47966;SDS011;33733;52.456;13.620;2023-03-20T03:48:06;4.85;;;1.92;;
47966;SDS011;33733;52.456;13.620;2023-03-20T03:50:40;8.48;;;1.38;;
47966;SDS011;33733;52.456;13.620;2023-03-20T03:53:16;5.32;;;1.55;;
47966;SDS011;33733;52.456;13.620;2023-03-20T03:55:46;4.00;;;1.23;;
47966;SDS011;33733;52.456;13.620;2023-03-20T03:58:18;4.95;;;1.75;;
47966;SDS011;33733;52.456;13.620;2023-03-20T04:00:57;4.18;;;1.23;;
47966;SDS011;33733;52.456;13.620;2023-03-20T04:03:27;5.30;;;1.85;;
47966;SDS011;33733;52.456;13.620;2023-03-20T04:05:55;4.50;;;1.30;;
47966;SDS011;33733;52.456;13.620;2023-03-20T04:08:24;5.07;;;2.00;;
47966;SDS011;33733;52.456;13.620;2023-03-20T04:10:51;3.72;;;1.08;;
47966;SDS011;33733;52.456;13.620;2023-03-20T04:13:17;4.78;;;1.40;;
47966;SDS011;33733;52.456;13.620;2023-03-20T04:15:44;7.15;;;1.88;;
47966;SDS011;33733;52.456;13.620;2023-03-20T04:18:13;4.68;;;1.70;;
47966;SDS011;33733;52.456;13.620;2023-03-20T04:20:45;4.97;;;1.83;;
47966;SDS011;33733;52.456;13.620;2023-03-20T04:23:14;4.50;;;1.65;;
47966;SDS011;33733;52.456;13.620;2023-03-20T04:25:41;4.65;;;2.17;;
47966;SDS011;33733;52.456;13.620;2023-03-20T04:28:08;3.55;;;1.15;;
47966;SDS011;33733;52.456;13.620;2023-03-20T04:30:55;4.97;;;1.70;;
47966;SDS011;33733;52.456;13.620;2023-03-20T04:33:46;3.85;;;1.23;;
47966;SDS011;33733;52.456;13.620;2023-03-20T04:36:41;4.05;;;1.40;;
47966;SDS011;33733;52.456;13.620;2023-03-20T04:39:11;5.00;;;1.92;;
47966;SDS011;33733;52.456;13.620;2023-03-20T04:41:38;5.20;;;2.00;;
47966;SDS011;33733;52.456;13.620;2023-03-20T04:44:05;4.93;;;1.70;;
47966;SDS011;33733;52.456;13.620;2023-03-20T04:46:34;4.68;;;1.60;;
47966;SDS011;33733;52.456;13.620;2023-03-20T04:49:05;4.38;;;1.88;;
47966;SDS011;33733;52.456;13.620;2023-03-20T04:51:31;4.63;;;1.38;;
47966;SDS011;33733;52.456;13.620;2023-03-20T04:53:58;4.43;;;1.55;;
47966;SDS011;33733;52.456;13.620;2023-03-20T04:56:25;4.72;;;1.90;;
47966;SDS011;33733;52.456;13.620;2023-03-20T04:58:57;4.40;;;1.65;;
47966;SDS011;33733;52.456;13.620;2023-03-20T05:01:24;4.47;;;1.75;;
47966;SDS011;33733;52.456;13.620;2023-03-20T05:03:51;6.70;;;2.28;;
47966;SDS011;33733;52.456;13.620;2023-03-20T05:06:18;6.32;;;1.73;;
47966;SDS011;33733;52.456;13.620;2023-03-20T05:08:45;6.03;;;1.73;;
47966;SDS011;33733;52.456;13.620;2023-03-20T05:11:12;5.35;;;2.22;;
47966;SDS011;33733;52.456;13.620;2023-03-20T05:13:53;4.43;;;1.85;;
47966;SDS011;33733;52.456;13.620;2023-03-20T05:16:38;4.63;;;1.90;;
47966;SDS011;33733;52.456;13.620;2023-03-20T05:19:23;4.45;;;1.58;;
47966;SDS011;33733;52.456;13.620;2023-03-20T05:22:17;4.15;;;1.67;;
47966;SDS011;33733;52.456;13.620;2023-03-20T05:25:04;4.70;;;2.10;;
47966;SDS011;33733;52.456;13.620;2023-03-20T05:27:49;4.95;;;1.83;;
47966;SDS011;33733;52.456;13.620;2023-03-20T05:30:38;13.30;;;5.20;;
47966;SDS011;33733;52.456;13.620;2023-03-20T05:33:30;6.30;;;2.42;;
47966;SDS011;33733;52.456;13.620;2023-03-20T05:36:15;5.35;;;1.67;;
47966;SDS011;33733;52.456;13.620;2023-03-20T05:39:14;4.38;;;1.70;;
47966;SDS011;33733;52.456;13.620;2023-03-20T05:42:03;4.53;;;1.45;;
47966;SDS011;33733;52.456;13.620;2023-03-20T05:44:45;5.32;;;1.85;;
47966;SDS011;33733;52.456;13.620;2023-03-20T05:47:38;4.95;;;1.67;;
47966;SDS011;33733;52.456;13.620;2023-03-20T05:50:25;5.25;;;1.83;;
47966;SDS011;33733;52.456;13.620;2023-03-20T05:53:10;6.03;;;2.35;;
47966;SDS011;33733;52.456;13.620;2023-03-20T05:55:57;5.82;;;2.17;;
47966;SDS011;33733;52.456;13.620;2023-03-20T05:58:44;7.07;;;1.98;;
47966;SDS011;33733;52.456;13.620;2023-03-20T06:01:13;5.80;;;1.70;;
47966;SDS011;33733;52.456;13.620;2023-03-20T06:03:59;5.43;;;1.58;;
47966;SDS011;33733;52.456;13.620;2023-03-20T06:06:52;5.22;;;1.83;;
47966;SDS011;33733;52.456;13.620;2023-03-20T06:09:20;5.30;;;1.83;;
47966;SDS011;33733;52.456;13.620;2023-03-20T06:11:47;8.27;;;2.35;;
47966;SDS011;33733;52.456;13.620;2023-03-20T06:14:16;5.60;;;1.77;;
47966;SDS011;33733;52.456;13.620;2023-03-20T06:16:48;6.07;;;2.42;;
47966;SDS011;33733;52.456;13.620;2023-03-20T06:19:15;10.30;;;2.03;;
47966;SDS011;33733;52.456;13.620;2023-03-20T06:21:42;5.03;;;1.80;;
47966;SDS011;33733;52.456;13.620;2023-03-20T06:24:13;4.97;;;2.20;;
47966;SDS011;33733;52.456;13.620;2023-03-20T06:26:41;5.10;;;1.90;;
47966;SDS011;33733;52.456;13.620;2023-03-20T06:31:37;5.68;;;1.83;;
47966;SDS011;33733;52.456;13.620;2023-03-20T06:36:38;4.90;;;1.98;;
47966;SDS011;33733;52.456;13.620;2023-03-20T06:39:12;5.40;;;2.42;;
47966;SDS011;33733;52.456;13.620;2023-03-20T06:41:39;5.28;;;2.20;;
47966;SDS011;33733;52.456;13.620;2023-03-20T06:44:08;5.30;;;1.85;;
47966;SDS011;33733;52.456;13.620;2023-03-20T06:47:05;5.70;;;1.85;;
47966;SDS011;33733;52.456;13.620;2023-03-20T06:49:33;5.35;;;2.15;;
47966;SDS011;33733;52.456;13.620;2023-03-20T06:52:00;6.60;;;2.35;;
47966;SDS011;33733;52.456;13.620;2023-03-20T06:56:56;5.63;;;2.35;;
47966;SDS011;33733;52.456;13.620;2023-03-20T06:59:23;5.32;;;2.35;;
47966;SDS011;33733;52.456;13.620;2023-03-20T07:01:54;5.63;;;2.15;;
47966;SDS011;33733;52.456;13.620;2023-03-20T07:04:22;6.65;;;3.47;;
47966;SDS011;33733;52.456;13.620;2023-03-20T07:06:52;10.07;;;3.70;;
47966;SDS011;33733;52.456;13.620;2023-03-20T07:09:19;8.48;;;4.30;;
47966;SDS011;33733;52.456;13.620;2023-03-20T07:11:47;13.77;;;5.30;;
47966;SDS011;33733;52.456;13.620;2023-03-20T07:14:14;12.35;;;5.68;;
47966;SDS011;33733;52.456;13.620;2023-03-20T07:16:47;8.52;;;4.13;;
47966;SDS011;33733;52.456;13.620;2023-03-20T07:19:14;11.85;;;5.28;;
47966;SDS011;33733;52.456;13.620;2023-03-20T07:21:43;11.82;;;5.70;;
47966;SDS011;33733;52.456;13.620;2023-03-20T07:24:12;11.13;;;5.63;;
47966;SDS011;33733;52.456;13.620;2023-03-20T07:26:39;10.85;;;5.85;;
47966;SDS011;33733;52.456;13.620;2023-03-20T07:29:09;9.98;;;5.30;;
47966;SDS011;33733;52.456;13.620;2023-03-20T07:31:36;10.20;;;4.85;;
47966;SDS011;33733;52.456;13.620;2023-03-20T07:34:24;11.57;;;5.22;;
47966;SDS011;33733;52.456;13.620;2023-03-20T07:36:52;12.60;;;6.40;;
47966;SDS011;33733;52.456;13.620;2023-03-20T07:39:20;12.85;;;6.57;;
47966;SDS011;33733;52.456;13.620;2023-03-20T07:42:16;14.45;;;6.13;;
47966;SDS011;33733;52.456;13.620;2023-03-20T07:44:50;15.25;;;6.15;;
47966;SDS011;33733;52.456;13.620;2023-03-20T07:47:17;12.95;;;5.65;;
47966;SDS011;33733;52.456;13.620;2023-03-20T07:49:44;12.50;;;7.05;;
47966;SDS011;33733;52.456;13.620;2023-03-20T07:52:12;15.48;;;6.93;;
47966;SDS011;33733;52.456;13.620;2023-03-20T07:54:38;14.55;;;6.43;;
47966;SDS011;33733;52.456;13.620;2023-03-20T07:57:05;13.15;;;6.07;;
47966;SDS011;33733;52.456;13.620;2023-03-20T07:59:32;14.20;;;7.53;;
47966;SDS011;33733;52.456;13.620;2023-03-20T08:01:58;16.48;;;6.57;;
47966;SDS011;33733;52.456;13.620;2023-03-20T08:04:25;17.95;;;7.50;;
47966;SDS011;33733;52.456;13.620;2023-03-20T08:06:53;13.15;;;6.05;;
47966;SDS011;33733;52.456;13.620;2023-03-20T08:09:20;14.50;;;7.28;;
47966;SDS011;33733;52.456;13.620;2023-03-20T08:11:46;10.77;;;5.00;;
47966;SDS011;33733;52.456;13.620;2023-03-20T08:14:13;16.90;;;7.47;;
47966;SDS011;33733;52.456;13.620;2023-03-20T08:16:40;12.02;;;6.13;;
47966;SDS011;33733;52.456;13.620;2023-03-20T08:19:07;16.73;;;6.60;;
47966;SDS011;33733;52.456;13.620;2023-03-20T08:21:33;14.70;;;7.32;;
47966;SDS011;33733;52.456;13.620;2023-03-20T08:24:00;16.15;;;6.85;;
47966;SDS011;33733;52.456;13.620;2023-03-20T08:26:27;11.25;;;5.30;;
47966;SDS011;33733;52.456;13.620;2023-03-20T08:28:54;16.10;;;5.93;;
47966;SDS011;33733;52.456;13.620;2023-03-20T08:31:20;15.02;;;6.93;;
47966;SDS011;33733;52.456;13.620;2023-03-20T08:33:48;12.48;;;6.15;;
47966;SDS011;33733;52.456;13.620;2023-03-20T08:36:15;13.55;;;6.03;;
47966;SDS011;33733;52.456;13.620;2023-03-20T08:38:45;12.57;;;5.50;;
47966;SDS011;33733;52.456;13.620;2023-03-20T08:41:12;10.48;;;5.03;;
47966;SDS011;33733;52.456;13.620;2023-03-20T08:43:39;11.45;;;5.03;;
47966;SDS011;33733;52.456;13.620;2023-03-20T08:46:06;12.60;;;5.75;;
47966;SDS011;33733;52.456;13.620;2023-03-20T08:48:33;11.70;;;4.90;;
47966;SDS011;33733;52.456;13.620;2023-03-20T08:51:00;11.05;;;4.80;;
47966;SDS011;33733;52.456;13.620;2023-03-20T08:53:27;12.80;;;5.00;;
47966;SDS011;33733;52.456;13.620;2023-03-20T08:55:53;11.55;;;5.13;;
47966;SDS011;33733;52.456;13.620;2023-03-20T08:58:20;11.88;;;5.65;;
47966;SDS011;33733;52.456;13.620;2023-03-20T09:00:48;11.75;;;5.90;;
47966;SDS011;33733;52.456;13.620;2023-03-20T09:03:15;12.15;;;5.80;;
47966;SDS011;33733;52.456;13.620;2023-03-20T09:05:47;16.83;;;6.90;;
47966;SDS011;33733;52.456;13.620;2023-03-20T09:08:15;15.18;;;5.85;;
47966;SDS011;33733;52.456;13.620;2023-03-20T09:10:42;19.08;;;7.38;;
47966;SDS011;33733;52.456;13.620;2023-03-20T09:13:08;17.27;;;6.47;;
47966;SDS011;33733;52.456;13.620;2023-03-20T09:15:52;16.27;;;5.20;;
47966;SDS011;33733;52.456;13.620;2023-03-20T09:18:19;13.07;;;4.95;;
47966;SDS011;33733;52.456;13.620;2023-03-20T09:20:46;13.55;;;5.40;;
47966;SDS011;33733;52.456;13.620;2023-03-20T09:23:14;12.45;;;5.53;;
47966;SDS011;33733;52.456;13.620;2023-03-20T09:25:40;11.48;;;5.35;;
47966;SDS011;33733;52.456;13.620;2023-03-20T09:28:07;14.13;;;4.90;;
47966;SDS011;33733;52.456;13.620;2023-03-20T09:30:34;12.63;;;5.50;;
47966;SDS011;33733;52.456;13.620;2023-03-20T09:33:01;10.23;;;4.40;;
47966;SDS011;33733;52.456;13.620;2023-03-20T09:35:28;9.93;;;3.50;;
47966;SDS011;33733;52.456;13.620;2023-03-20T09:37:55;10.60;;;4.93;;
47966;SDS011;33733;52.456;13.620;2023-03-20T09:40:26;11.18;;;4.80;;
47966;SDS011;33733;52.456;13.620;2023-03-20T09:43:00;9.27;;;3.15;;
47966;SDS011;33733;52.456;13.620;2023-03-20T09:53:04;9.10;;;2.58;;
47966;SDS011;33733;52.456;13.620;2023-03-20T09:55:38;10.68;;;3.38;;
47966;SDS011;33733;52.456;13.620;2023-03-20T09:58:17;7.00;;;2.58;;
47966;SDS011;33733;52.456;13.620;2023-03-20T10:00:47;9.35;;;3.45;;
47966;SDS011;33733;52.456;13.620;2023-03-20T10:03:18;8.20;;;3.15;;
47966;SDS011;33733;52.456;13.620;2023-03-20T10:08:33;6.88;;;2.70;;
47966;SDS011;33733;52.456;13.620;2023-03-20T10:13:59;9.00;;;3.38;;
47966;SDS011;33733;52.456;13.620;2023-03-20T10:16:45;11.15;;;3.35;;
47966;SDS011;33733;52.456;13.620;2023-03-20T10:19:32;10.35;;;3.22;;
47966;SDS011;33733;52.456;13.620;2023-03-20T10:25:07;10.95;;;3.42;;
47966;SDS011;33733;52.456;13.620;2023-03-20T10:27:47;7.97;;;3.15;;
47966;SDS011;33733;52.456;13.620;2023-03-20T10:30:29;11.70;;;3.75;;
47966;SDS011;33733;52.456;13.620;2023-03-20T10:33:07;9.07;;;2.60;;
47966;SDS011;33733;52.456;13.620;2023-03-20T10:35:46;8.63;;;3.47;;
47966;SDS011;33733;52.456;13.620;2023-03-20T10:38:27;8.98;;;3.72;;
47966;SDS011;33733;52.456;13.620;2023-03-20T10:41:11;6.78;;;2.67;;
47966;SDS011;33733;52.456;13.620;2023-03-20T10:43:43;9.13;;;2.95;;
47966;SDS011;33733;52.456;13.620;2023-03-20T10:46:18;11.45;;;2.90;;
47966;SDS011;33733;52.456;13.620;2023-03-20T10:48:59;8.82;;;3.45;;
47966;SDS011;33733;52.456;13.620;2023-03-20T10:51:37;8.80;;;3.03;;
47966;SDS011;33733;52.456;13.620;2023-03-20T10:54:05;9.18;;;3.83;;
47966;SDS011;33733;52.456;13.620;2023-03-20T10:56:40;7.45;;;2.58;;
47966;SDS011;33733;52.456;13.620;2023-03-20T10:59:23;5.75;;;2.35;;
47966;SDS011;33733;52.456;13.620;2023-03-20T11:01:50;9.05;;;2.95;;
47966;SDS011;33733;52.456;13.620;2023-03-20T11:04:17;8.18;;;3.10;;
47966;SDS011;33733;52.456;13.620;2023-03-20T11:06:50;5.82;;;1.92;;
47966;SDS011;33733;52.456;13.620;2023-03-20T11:09:23;8.38;;;2.55;;
47966;SDS011;33733;52.456;13.620;2023-03-20T11:11:55;9.30;;;3.72;;
47966;SDS011;33733;52.456;13.620;2023-03-20T11:14:25;4.65;;;1.60;;
47966;SDS011;33733;52.456;13.620;2023-03-20T11:16:54;8.63;;;2.97;;
47966;SDS011;33733;52.456;13.620;2023-03-20T11:19:22;10.90;;;4.18;;
47966;SDS011;33733;52.456;13.620;2023-03-20T11:21:50;10.50;;;2.55;;
47966;SDS011;33733;52.456;13.620;2023-03-20T11:24:23;5.78;;;2.17;;
47966;SDS011;33733;52.456;13.620;2023-03-20T11:26:51;7.43;;;1.85;;
47966;SDS011;33733;52.456;13.620;2023-03-20T11:29:26;7.13;;;1.80;;
47966;SDS011;33733;52.456;13.620;2023-03-20T11:32:02;6.15;;;2.45;;
47966;SDS011;33733;52.456;13.620;2023-03-20T11:34:30;6.97;;;2.47;;
47966;SDS011;33733;52.456;13.620;2023-03-20T11:37:00;6.85;;;2.13;;
47966;SDS011;33733;52.456;13.620;2023-03-20T11:39:36;7.90;;;3.08;;
47966;SDS011;33733;52.456;13.620;2023-03-20T11:42:18;8.68;;;2.17;;
47966;SDS011;33733;52.456;13.620;2023-03-20T11:44:55;6.82;;;2.55;;
47966;SDS011;33733;52.456;13.620;2023-03-20T11:47:24;6.35;;;1.92;;
47966;SDS011;33733;52.456;13.620;2023-03-20T11:49:59;7.15;;;2.13;;
47966;SDS011;33733;52.456;13.620;2023-03-20T11:52:34;7.63;;;2.58;;
47966;SDS011;33733;52.456;13.620;2023-03-20T11:55:04;5.20;;;2.15;;
47966;SDS011;33733;52.456;13.620;2023-03-20T11:57:54;5.88;;;1.45;;
47966;SDS011;33733;52.456;13.620;2023-03-20T12:00:35;6.85;;;1.92;;
47966;SDS011;33733;52.456;13.620;2023-03-20T12:03:14;5.93;;;1.83;;
47966;SDS011;33733;52.456;13.620;2023-03-20T12:06:22;6.05;;;2.15;;
47966;SDS011;33733;52.456;13.620;2023-03-20T12:08:54;5.18;;;1.70;;
47966;SDS011;33733;52.456;13.620;2023-03-20T12:14:26;7.15;;;2.40;;
47966;SDS011;33733;52.456;13.620;2023-03-20T12:17:02;4.45;;;1.42;;
47966;SDS011;33733;52.456;13.620;2023-03-20T12:19:39;5.07;;;2.33;;
47966;SDS011;33733;52.456;13.620;2023-03-20T12:22:23;4.78;;;1.67;;
47966;SDS011;33733;52.456;13.620;2023-03-20T12:24:59;6.78;;;1.95;;
47966;SDS011;33733;52.456;13.620;2023-03-20T12:31:06;6.82;;;2.40;;
47966;SDS011;33733;52.456;13.620;2023-03-20T12:33:44;4.93;;;1.60;;
47966;SDS011;33733;52.456;13.620;2023-03-20T12:36:17;5.22;;;2.20;;
47966;SDS011;33733;52.456;13.620;2023-03-20T12:38:50;8.45;;;2.97;;
47966;SDS011;33733;52.456;13.620;2023-03-20T12:41:24;5.65;;;1.88;;
47966;SDS011;33733;52.456;13.620;2023-03-20T12:46:53;4.40;;;1.73;;
47966;SDS011;33733;52.456;13.620;2023-03-20T12:52:02;6.47;;;2.15;;
47966;SDS011;33733;52.456;13.620;2023-03-20T13:05:24;6.75;;;1.48;;
47966;SDS011;33733;52.456;13.620;2023-03-20T13:10:28;4.93;;;1.52;;
47966;SDS011;33733;52.456;13.620;2023-03-20T13:21:12;5.20;;;1.92;;
47966;SDS011;33733;52.456;13.620;2023-03-20T13:23:50;5.38;;;2.03;;
47966;SDS011;33733;52.456;13.620;2023-03-20T13:26:45;5.65;;;1.77;;
47966;SDS011;33733;52.456;13.620;2023-03-20T13:29:28;5.22;;;1.77;;
47966;SDS011;33733;52.456;13.620;2023-03-20T13:32:26;7.18;;;2.55;;
47966;SDS011;33733;52.456;13.620;2023-03-20T13:37:39;9.55;;;2.22;;
47966;SDS011;33733;52.456;13.620;2023-03-20T13:40:12;6.13;;;1.73;;
47966;SDS011;33733;52.456;13.620;2023-03-20T13:45:40;8.68;;;2.30;;
47966;SDS011;33733;52.456;13.620;2023-03-20T13:53:50;8.05;;;2.67;;
47966;SDS011;33733;52.456;13.620;2023-03-20T13:59:17;6.65;;;2.03;;
47966;SDS011;33733;52.456;13.620;2023-03-20T14:04:30;7.47;;;3.13;;
47966;SDS011;33733;52.456;13.620;2023-03-20T14:12:48;9.15;;;3.50;;
47966;SDS011;33733;52.456;13.620;2023-03-20T14:15:21;5.60;;;2.33;;
47966;SDS011;33733;52.456;13.620;2023-03-20T14:17:51;5.20;;;2.10;;
47966;SDS011;33733;52.456;13.620;2023-03-20T14:20:27;8.27;;;2.55;;
47966;SDS011;33733;52.456;13.620;2023-03-20T14:22:59;7.88;;;2.20;;
47966;SDS011;33733;52.456;13.620;2023-03-20T14:25:26;7.28;;;2.38;;
47966;SDS011;33733;52.456;13.620;2023-03-20T14:27:58;6.65;;;2.97;;
47966;SDS011;33733;52.456;13.620;2023-03-20T14:30:35;5.40;;;1.85;;
47966;SDS011;33733;52.456;13.620;2023-03-20T14:33:05;7.20;;;2.38;;
47966;SDS011;33733;52.456;13.620;2023-03-20T14:35:36;8.75;;;3.30;;
47966;SDS011;33733;52.456;13.620;2023-03-20T14:38:22;6.25;;;2.15;;
47966;SDS011;33733;52.456;13.620;2023-03-20T14:40:53;5.85;;;2.08;;
47966;SDS011;33733;52.456;13.620;2023-03-20T14:43:37;6.57;;;2.17;;
47966;SDS011;33733;52.456;13.620;2023-03-20T14:49:47;6.97;;;3.03;;
47966;SDS011;33733;52.456;13.620;2023-03-20T14:52:18;7.78;;;2.95;;
47966;SDS011;33733;52.456;13.620;2023-03-20T14:57:47;7.95;;;2.00;;
47966;SDS011;33733;52.456;13.620;2023-03-20T15:00:23;10.05;;;2.85;;
47966;SDS011;33733;52.456;13.620;2023-03-20T15:02:53;8.60;;;2.45;;
47966;SDS011;33733;52.456;13.620;2023-03-20T15:05:28;7.18;;;2.42;;
47966;SDS011;33733;52.456;13.620;2023-03-20T15:07:57;8.73;;;2.88;;
47966;SDS011;33733;52.456;13.620;2023-03-20T15:10:29;10.13;;;2.55;;
47966;SDS011;33733;52.456;13.620;2023-03-20T15:12:56;7.20;;;2.92;;
47966;SDS011;33733;52.456;13.620;2023-03-20T15:15:27;8.73;;;2.83;;
47966;SDS011;33733;52.456;13.620;2023-03-20T15:18:09;9.23;;;2.80;;
47966;SDS011;33733;52.456;13.620;2023-03-20T15:20:38;7.63;;;2.00;;
47966;SDS011;33733;52.456;13.620;2023-03-20T15:23:05;10.02;;;2.92;;
47966;SDS011;33733;52.456;13.620;2023-03-20T15:25:35;8.25;;;3.55;;
47966;SDS011;33733;52.456;13.620;2023-03-20T15:28:22;10.40;;;3.90;;
47966;SDS011;33733;52.456;13.620;2023-03-20T15:30:51;7.45;;;2.70;;
47966;SDS011;33733;52.456;13.620;2023-03-20T15:33:24;7.97;;;2.80;;
47966;SDS011;33733;52.456;13.620;2023-03-20T15:35:53;6.55;;;2.67;;
47966;SDS011;33733;52.456;13.620;2023-03-20T15:38:20;8.63;;;2.95;;
47966;SDS011;33733;52.456;13.620;2023-03-20T15:40:46;9.00;;;2.78;;
47966;SDS011;33733;52.456;13.620;2023-03-20T15:43:18;10.25;;;3.72;;
47966;SDS011;33733;52.456;13.620;2023-03-20T15:45:47;9.25;;;3.28;;
47966;SDS011;33733;52.456;13.620;2023-03-20T15:48:16;9.60;;;3.58;;
47966;SDS011;33733;52.456;13.620;2023-03-20T15:50:51;9.15;;;3.17;;
47966;SDS011;33733;52.456;13.620;2023-03-20T15:53:26;6.40;;;2.55;;
47966;SDS011;33733;52.456;13.620;2023-03-20T15:56:05;7.30;;;3.08;;
47966;SDS011;33733;52.456;13.620;2023-03-20T15:58:44;7.93;;;3.00;;
47966;SDS011;33733;52.456;13.620;2023-03-20T16:01:18;8.25;;;2.88;;
47966;SDS011;33733;52.456;13.620;2023-03-20T16:03:47;8.07;;;2.70;;
47966;SDS011;33733;52.456;13.620;2023-03-20T16:06:15;9.85;;;3.40;;
47966;SDS011;33733;52.456;13.620;2023-03-20T16:08:44;6.88;;;2.80;;
47966;SDS011;33733;52.456;13.620;2023-03-20T16:11:35;10.45;;;3.15;;
47966;SDS011;33733;52.456;13.620;2023-03-20T16:14:02;7.55;;;2.45;;
47966;SDS011;33733;52.456;13.620;2023-03-20T16:16:29;7.85;;;3.00;;
47966;SDS011;33733;52.456;13.620;2023-03-20T16:19:05;7.20;;;2.25;;
47966;SDS011;33733;52.456;13.620;2023-03-20T16:21:34;6.40;;;3.00;;
47966;SDS011;33733;52.456;13.620;2023-03-20T16:24:07;8.43;;;2.90;;
47966;SDS011;33733;52.456;13.620;2023-03-20T16:26:37;8.73;;;2.97;;
47966;SDS011;33733;52.456;13.620;2023-03-20T16:29:06;7.38;;;2.60;;
47966;SDS011;33733;52.456;13.620;2023-03-20T16:31:35;7.00;;;2.72;;
47966;SDS011;33733;52.456;13.620;2023-03-20T16:34:08;7.88;;;2.60;;
47966;SDS011;33733;52.456;13.620;2023-03-20T16:41:41;7.30;;;2.58;;
47966;SDS011;33733;52.456;13.620;2023-03-20T16:44:16;8.70;;;3.20;;
47966;SDS011;33733;52.456;13.620;2023-03-20T16:51:49;8.38;;;3.60;;
47966;SDS011;33733;52.456;13.620;2023-03-20T16:54:17;8.18;;;2.65;;
47966;SDS011;33733;52.456;13.620;2023-03-20T16:56:52;6.97;;;2.85;;
47966;SDS011;33733;52.456;13.620;2023-03-20T16:59:21;8.80;;;2.42;;
47966;SDS011;33733;52.456;13.620;2023-03-20T17:01:49;8.02;;;2.78;;
47966;SDS011;33733;52.456;13.620;2023-03-20T17:04:22;6.32;;;2.28;;
47966;SDS011;33733;52.456;13.620;2023-03-20T17:07:00;7.40;;;2.90;;
47966;SDS011;33733;52.456;13.620;2023-03-20T17:09:32;6.53;;;2.45;;
47966;SDS011;33733;52.456;13.620;2023-03-20T17:12:23;7.63;;;2.83;;
47966;SDS011;33733;52.456;13.620;2023-03-20T17:14:46;5.88;;;2.10;;
47966;SDS011;33733;52.456;13.620;2023-03-20T17:17:13;10.60;;;3.17;;
47966;SDS011;33733;52.456;13.620;2023-03-20T17:19:44;8.90;;;2.38;;